createdAt,value
2019-05-25T00:00:30.082Z,21.47
2019-05-25T00:02:59.577Z,21.47
2019-05-25T00:05:29.229Z,21.44
2019-05-25T00:07:58.686Z,21.42
2019-05-25T00:10:28.218Z,21.40
2019-05-25T00:12:57.705Z,21.39
2019-05-25T00:15:27.328Z,21.38
2019-05-25T00:17:56.794Z,21.33
2019-05-25T00:20:26.236Z,21.33
2019-05-25T00:22:55.722Z,21.30
2019-05-25T00:25:25.127Z,21.27
2019-05-25T00:27:54.538Z,21.25
2019-05-25T00:30:23.987Z,21.23
2019-05-25T00:32:53.361Z,21.21
2019-05-25T00:35:22.755Z,21.21
2019-05-25T00:37:52.140Z,21.16
2019-05-25T00:40:21.590Z,21.17
2019-05-25T00:42:50.971Z,21.17
2019-05-25T00:45:20.397Z,21.14
2019-05-25T00:47:49.797Z,21.12
2019-05-25T00:50:19.248Z,21.13
2019-05-25T00:52:48.618Z,21.10
2019-05-25T00:55:17.971Z,21.09
2019-05-25T00:57:47.448Z,21.07
2019-05-25T01:00:17.777Z,21.07
2019-05-25T01:02:47.165Z,20.99
2019-05-25T01:05:16.682Z,20.95
2019-05-25T01:07:46.133Z,20.90
2019-05-25T01:10:15.784Z,20.87
2019-05-25T01:12:45.224Z,20.81
2019-05-25T01:15:16.500Z,20.78
2019-05-25T01:17:45.936Z,20.76
2019-05-25T01:20:15.682Z,20.73
2019-05-25T01:22:45.152Z,20.72
2019-05-25T01:25:14.797Z,20.70
2019-05-25T01:27:44.233Z,20.65
2019-05-25T01:30:14.350Z,20.65
2019-05-25T01:32:43.801Z,20.60
2019-05-25T01:35:13.333Z,20.61
2019-05-25T01:37:42.734Z,20.62
2019-05-25T01:40:12.657Z,20.58
2019-05-25T01:42:42.036Z,20.60
2019-05-25T01:45:11.720Z,20.56
2019-05-25T01:47:41.124Z,20.53
2019-05-25T01:50:10.707Z,20.51
2019-05-25T01:52:40.174Z,20.46
2019-05-25T01:55:09.655Z,20.45
2019-05-25T01:57:39.092Z,20.43
2019-05-25T02:00:10.022Z,20.41
2019-05-25T02:02:39.547Z,20.43
2019-05-25T02:05:09.098Z,20.41
2019-05-25T02:07:38.537Z,20.39
2019-05-25T02:10:08.069Z,20.32
2019-05-25T02:12:37.513Z,20.34
2019-05-25T02:15:07.489Z,20.36
2019-05-25T02:17:36.921Z,20.35
2019-05-25T02:20:06.576Z,20.30
2019-05-25T02:22:36.108Z,20.30
2019-05-25T02:25:16.964Z,20.30
2019-05-25T02:27:37.215Z,20.28
2019-05-25T02:30:06.810Z,20.28
2019-05-25T02:32:36.274Z,20.25
2019-05-25T02:35:06.276Z,20.24
2019-05-25T02:37:35.741Z,20.22
2019-05-25T02:40:05.955Z,20.22
2019-05-25T02:42:35.418Z,20.21
2019-05-25T02:45:05.477Z,20.19
2019-05-25T02:47:34.940Z,20.15
2019-05-25T02:50:04.660Z,20.14
2019-05-25T02:52:34.119Z,20.13
2019-05-25T02:55:03.838Z,20.11
2019-05-25T02:57:33.269Z,20.10
2019-05-25T03:00:02.801Z,20.09
2019-05-25T03:02:32.180Z,20.09
2019-05-25T03:05:01.665Z,20.07
2019-05-25T03:07:31.072Z,20.07
2019-05-25T03:10:00.940Z,20.05
2019-05-25T03:12:30.977Z,20.03
2019-05-25T03:15:00.455Z,19.99
2019-05-25T03:17:29.963Z,19.99
2019-05-25T03:19:59.444Z,19.99
2019-05-25T03:22:28.824Z,19.97
2019-05-25T03:24:58.214Z,19.98
2019-05-25T03:27:27.606Z,19.95
2019-05-25T03:29:57.077Z,19.93
2019-05-25T03:32:26.550Z,19.90
2019-05-25T03:34:56.012Z,19.85
2019-05-25T03:37:25.390Z,19.88
2019-05-25T03:39:54.815Z,19.89
2019-05-25T03:42:24.199Z,19.87
2019-05-25T03:44:53.596Z,19.87
2019-05-25T03:47:23.169Z,19.84
2019-05-25T03:49:52.648Z,19.83
2019-05-25T03:52:22.131Z,19.82
2019-05-25T03:54:51.639Z,19.80
2019-05-25T03:57:21.017Z,19.82
2019-05-25T03:59:50.390Z,19.79
2019-05-25T04:02:19.794Z,19.80
2019-05-25T04:04:49.234Z,19.77
2019-05-25T04:07:18.698Z,19.74
2019-05-25T04:09:48.075Z,19.77
2019-05-25T04:12:17.475Z,19.75
2019-05-25T04:14:46.922Z,19.76
2019-05-25T04:17:16.412Z,19.74
2019-05-25T04:19:45.952Z,19.73
2019-05-25T04:22:15.405Z,19.71
2019-05-25T04:24:44.790Z,19.72
2019-05-25T04:27:14.274Z,19.73
2019-05-25T04:29:43.737Z,19.74
2019-05-25T04:32:13.140Z,19.73
2019-05-25T04:34:42.512Z,19.65
2019-05-25T04:37:11.907Z,19.50
2019-05-25T04:39:41.311Z,19.49
2019-05-25T04:42:10.711Z,19.58
2019-05-25T04:44:40.078Z,19.62
2019-05-25T04:47:09.530Z,19.64
2019-05-25T04:49:38.993Z,19.67
2019-05-25T04:52:08.412Z,19.70
2019-05-25T04:54:37.831Z,19.73
2019-05-25T04:57:07.431Z,19.69
2019-05-25T04:59:36.886Z,19.73
2019-05-25T05:02:06.374Z,19.75
2019-05-25T05:04:35.751Z,19.76
2019-05-25T05:07:05.325Z,19.74
2019-05-25T05:09:34.717Z,19.65
2019-05-25T05:12:04.189Z,19.51
2019-05-25T05:14:33.557Z,19.16
2019-05-25T05:17:03.092Z,19.27
2019-05-25T05:19:32.519Z,19.38
2019-05-25T05:22:05.541Z,19.48
2019-05-25T05:24:32.978Z,19.47
2019-05-25T05:27:02.380Z,19.34
2019-05-25T05:29:31.752Z,19.55
2019-05-25T05:32:01.189Z,19.60
2019-05-25T05:34:30.747Z,19.68
2019-05-25T05:37:01.696Z,19.71
2019-05-25T05:39:31.838Z,19.75
2019-05-25T05:42:01.501Z,19.77
2019-05-25T05:44:32.368Z,19.73
2019-05-25T05:47:03.180Z,19.70
2019-05-25T05:49:32.638Z,19.60
2019-05-25T05:52:03.855Z,19.35
2019-05-25T05:54:33.319Z,19.59
2019-05-25T05:57:11.948Z,19.73
2019-05-25T05:59:33.863Z,19.58
2019-05-25T06:02:03.466Z,19.60
2019-05-25T06:04:32.840Z,19.75
2019-05-25T06:07:02.274Z,19.79
2019-05-25T06:09:31.645Z,19.83
2019-05-25T06:12:01.014Z,19.82
2019-05-25T06:14:30.474Z,19.85
2019-05-25T06:16:59.959Z,19.88
2019-05-25T06:19:29.495Z,19.88
2019-05-25T06:21:59.216Z,19.91
2019-05-25T06:24:28.754Z,19.93
2019-05-25T06:26:58.165Z,19.90
2019-05-25T06:29:27.742Z,19.91
2019-05-25T06:31:57.170Z,19.96
2019-05-25T06:34:26.861Z,19.98
2019-05-25T06:36:56.281Z,19.96
2019-05-25T06:39:25.776Z,19.99
2019-05-25T06:41:55.269Z,19.99
2019-05-25T06:44:24.802Z,20.04
2019-05-25T06:46:54.259Z,20.06
2019-05-25T06:49:23.736Z,20.11
2019-05-25T06:51:53.114Z,20.07
2019-05-25T06:54:22.551Z,20.06
2019-05-25T06:56:52.700Z,20.15
2019-05-25T06:59:22.262Z,20.12
2019-05-25T07:01:51.758Z,20.21
2019-05-25T07:04:21.286Z,20.19
2019-05-25T07:06:50.759Z,20.14
2019-05-25T07:09:20.317Z,20.14
2019-05-25T07:11:49.780Z,20.17
2019-05-25T07:14:19.381Z,20.19
2019-05-25T07:16:51.319Z,20.29
2019-05-25T07:19:22.949Z,20.30
2019-05-25T07:21:52.714Z,20.37
2019-05-25T07:24:22.308Z,20.27
2019-05-25T07:26:52.604Z,20.28
2019-05-25T07:29:22.524Z,20.36
2019-05-25T07:31:52.257Z,20.48
2019-05-25T07:34:23.176Z,20.56
2019-05-25T07:36:53.389Z,20.49
2019-05-25T07:39:23.101Z,20.51
2019-05-25T07:41:52.590Z,20.50
2019-05-25T07:44:22.889Z,20.57
2019-05-25T07:46:52.260Z,20.57
2019-05-25T07:49:21.692Z,20.63
2019-05-25T07:51:51.136Z,20.68
2019-05-25T07:54:20.813Z,20.66
2019-05-25T07:56:51.675Z,20.75
2019-05-25T07:59:21.292Z,20.80
2019-05-25T08:01:50.764Z,20.82
2019-05-25T08:04:20.300Z,20.86
2019-05-25T08:06:49.854Z,20.88
2019-05-25T08:09:19.287Z,20.91
2019-05-25T08:11:48.732Z,20.99
2019-05-25T08:14:18.272Z,21.07
2019-05-25T08:16:47.783Z,21.23
2019-05-25T08:19:17.586Z,21.20
2019-05-25T08:21:47.125Z,21.22
2019-05-25T08:24:16.748Z,21.26
2019-05-25T08:26:46.329Z,21.43
2019-05-25T08:29:15.822Z,21.41
2019-05-25T08:31:45.301Z,21.44
2019-05-25T08:34:14.790Z,21.53
2019-05-25T08:36:44.329Z,21.51
2019-05-25T08:39:13.856Z,21.53
2019-05-25T08:41:45.615Z,21.53
2019-05-25T08:44:14.653Z,21.53
2019-05-25T08:46:44.172Z,21.74
2019-05-25T08:49:13.854Z,21.71
2019-05-25T08:51:43.409Z,21.70
2019-05-25T08:54:12.867Z,21.75
2019-05-25T08:56:44.825Z,21.79
2019-05-25T08:59:14.278Z,21.85
2019-05-25T09:01:43.895Z,21.87
2019-05-25T09:04:13.513Z,21.91
2019-05-25T09:06:43.118Z,21.95
2019-05-25T09:09:12.732Z,22.15
2019-05-25T09:11:42.225Z,22.11
2019-05-25T09:14:11.842Z,22.19
2019-05-25T09:16:41.289Z,22.43
2019-05-25T09:19:10.798Z,22.45
2019-05-25T09:21:40.322Z,22.50
2019-05-25T09:24:09.875Z,22.67
2019-05-25T09:26:39.390Z,22.58
2019-05-25T09:29:09.063Z,22.82
2019-05-25T09:31:40.493Z,22.72
2019-05-25T09:34:09.949Z,23.69
2019-05-25T09:36:40.089Z,23.28
2019-05-25T09:39:09.674Z,23.03
2019-05-25T09:41:39.135Z,23.15
2019-05-25T09:44:12.676Z,23.07
2019-05-25T09:46:42.118Z,22.99
2019-05-25T09:49:11.705Z,23.36
2019-05-25T09:51:41.160Z,23.18
2019-05-25T09:54:10.695Z,23.24
2019-05-25T09:56:40.233Z,23.10
2019-05-25T09:59:19.653Z,23.12
2019-05-25T10:01:41.004Z,23.10
2019-05-25T10:04:10.482Z,23.49
2019-05-25T10:06:39.954Z,23.31
2019-05-25T10:09:09.566Z,23.43
2019-05-25T10:11:39.030Z,23.29
2019-05-25T10:14:08.660Z,23.24
2019-05-25T10:16:38.201Z,23.32
2019-05-25T10:19:07.629Z,23.52
2019-05-25T10:21:39.426Z,23.62
2019-05-25T10:24:08.978Z,23.72
2019-05-25T10:26:38.518Z,23.89
2019-05-25T10:29:08.077Z,24.02
2019-05-25T10:31:37.619Z,23.77
2019-05-25T10:34:07.305Z,23.99
2019-05-25T10:36:36.801Z,24.04
2019-05-25T10:39:08.140Z,24.24
2019-05-25T10:41:37.668Z,24.96
2019-05-25T10:44:07.630Z,24.35
2019-05-25T10:46:37.671Z,24.24
2019-05-25T10:49:07.154Z,24.01
2019-05-25T10:51:36.666Z,24.35
2019-05-25T10:54:06.287Z,24.95
2019-05-25T10:56:35.891Z,24.95
2019-05-25T10:59:05.519Z,24.71
2019-05-25T11:01:35.075Z,24.74
2019-05-25T11:04:04.723Z,25.08
2019-05-25T11:06:35.007Z,25.45
2019-05-25T11:09:06.294Z,25.25
2019-05-25T11:11:35.818Z,25.19
2019-05-25T11:14:05.653Z,25.54
2019-05-25T11:16:35.165Z,26.27
2019-05-25T11:19:04.837Z,26.16
2019-05-25T11:21:34.547Z,25.84
2019-05-25T11:24:04.166Z,25.68
2019-05-25T11:26:33.820Z,25.42
2019-05-25T11:29:03.382Z,25.71
2019-05-25T11:31:33.012Z,25.81
2019-05-25T11:34:02.604Z,25.49
2019-05-25T11:36:32.228Z,25.74
2019-05-25T11:39:07.361Z,25.94
2019-05-25T11:41:36.892Z,25.82
2019-05-25T11:44:06.481Z,26.11
2019-05-25T11:46:35.995Z,26.09
2019-05-25T11:49:19.992Z,26.03
2019-05-25T11:51:37.150Z,25.83
2019-05-25T11:54:06.756Z,25.74
2019-05-25T11:56:36.270Z,25.70
2019-05-25T11:59:05.804Z,25.86
2019-05-25T12:01:35.282Z,25.75
2019-05-25T12:04:04.832Z,25.65
2019-05-25T12:06:34.403Z,25.77
2019-05-25T12:09:05.311Z,25.85
2019-05-25T12:11:34.870Z,25.59
2019-05-25T12:14:04.470Z,25.76
2019-05-25T12:16:33.977Z,25.64
2019-05-25T12:19:03.500Z,25.74
2019-05-25T12:21:32.950Z,25.83
2019-05-25T12:24:02.501Z,25.73
2019-05-25T12:26:31.964Z,25.82
2019-05-25T12:29:01.463Z,25.79
2019-05-25T12:31:31.253Z,25.69
2019-05-25T12:34:04.233Z,25.74
2019-05-25T12:36:33.711Z,25.30
2019-05-25T12:39:04.296Z,25.20
2019-05-25T12:41:33.823Z,24.98
2019-05-25T12:44:03.314Z,24.70
2019-05-25T12:46:32.834Z,24.89
2019-05-25T12:49:02.573Z,24.99
2019-05-25T12:51:32.061Z,24.92
2019-05-25T12:54:01.658Z,24.77
2019-05-25T12:56:31.189Z,24.75
2019-05-25T12:59:01.079Z,24.63
2019-05-25T13:01:30.723Z,24.68
2019-05-25T13:04:00.318Z,24.69
2019-05-25T13:06:30.029Z,24.74
2019-05-25T13:08:59.646Z,24.71
2019-05-25T13:11:32.270Z,24.68
2019-05-25T13:14:13.759Z,24.66
2019-05-25T13:16:33.261Z,24.48
2019-05-25T13:19:02.898Z,24.58
2019-05-25T13:21:32.565Z,24.61
2019-05-25T13:24:02.185Z,24.65
2019-05-25T13:26:31.864Z,24.74
2019-05-25T13:29:01.630Z,24.82
2019-05-25T13:31:31.279Z,24.88
2019-05-25T13:34:00.902Z,24.85
2019-05-25T13:36:30.555Z,24.94
2019-05-25T13:39:00.175Z,25.05
2019-05-25T13:41:29.958Z,25.17
2019-05-25T13:43:59.525Z,25.31
2019-05-25T13:46:29.371Z,25.40
2019-05-25T13:48:59.131Z,25.50
2019-05-25T13:51:28.753Z,25.49
2019-05-25T13:53:58.357Z,25.64
2019-05-25T13:56:28.005Z,25.66
2019-05-25T13:58:57.616Z,25.67
2019-05-25T14:01:28.668Z,25.54
2019-05-25T14:03:58.562Z,25.24
2019-05-25T14:06:28.212Z,25.32
2019-05-25T14:08:58.189Z,25.45
2019-05-25T14:11:27.803Z,25.52
2019-05-25T14:13:57.554Z,25.35
2019-05-25T14:16:27.269Z,25.34
2019-05-25T14:18:56.856Z,25.31
2019-05-25T14:21:26.457Z,25.50
2019-05-25T14:23:56.074Z,25.41
2019-05-25T14:26:25.642Z,25.30
2019-05-25T14:28:55.201Z,25.11
2019-05-25T14:31:24.929Z,25.21
2019-05-25T14:33:54.458Z,25.05
2019-05-25T14:36:24.085Z,25.21
2019-05-25T14:38:53.627Z,25.35
2019-05-25T14:41:23.200Z,25.40
2019-05-25T14:43:52.783Z,25.22
2019-05-25T14:46:27.835Z,24.95
2019-05-25T14:48:53.748Z,24.83
2019-05-25T14:51:23.326Z,24.98
2019-05-25T14:53:53.003Z,24.74
2019-05-25T14:56:22.564Z,24.78
2019-05-25T14:58:52.435Z,24.86
2019-05-25T15:01:21.998Z,25.00
2019-05-25T15:03:51.640Z,24.88
2019-05-25T15:06:21.565Z,24.81
2019-05-25T15:08:51.202Z,24.81
2019-05-25T15:11:21.220Z,24.70
2019-05-25T15:13:51.041Z,24.85
2019-05-25T15:16:20.646Z,24.74
2019-05-25T15:18:50.186Z,24.68
2019-05-25T15:21:21.469Z,24.79
2019-05-25T15:23:51.038Z,24.94
2019-05-25T15:26:20.562Z,24.99
2019-05-25T15:28:50.199Z,25.15
2019-05-25T15:31:19.761Z,25.07
2019-05-25T15:33:49.358Z,25.20
2019-05-25T15:36:19.150Z,25.17
2019-05-25T15:38:48.863Z,25.32
2019-05-25T15:41:18.439Z,25.43
2019-05-25T15:43:48.105Z,25.46
2019-05-25T15:46:17.717Z,25.53
2019-05-25T15:48:47.345Z,25.49
2019-05-25T15:51:16.995Z,25.52
2019-05-25T15:53:46.634Z,25.50
2019-05-25T15:56:16.291Z,25.46
2019-05-25T15:58:45.855Z,25.48
2019-05-25T16:01:15.580Z,25.47
2019-05-25T16:03:45.314Z,25.46
2019-05-25T16:06:15.037Z,25.61
2019-05-25T16:08:44.622Z,25.72
2019-05-25T16:11:14.282Z,25.88
2019-05-25T16:13:43.922Z,25.98
2019-05-25T16:16:13.563Z,26.03
2019-05-25T16:18:43.124Z,26.16
2019-05-25T16:21:12.964Z,26.28
2019-05-25T16:23:42.597Z,26.23
2019-05-25T16:26:12.140Z,26.35
2019-05-25T16:28:41.747Z,26.43
2019-05-25T16:31:11.419Z,26.36
2019-05-25T16:33:41.018Z,26.27
2019-05-25T16:36:10.610Z,26.33
2019-05-25T16:38:40.243Z,26.44
2019-05-25T16:41:09.839Z,26.30
2019-05-25T16:43:39.502Z,26.13
2019-05-25T16:46:09.155Z,25.94
2019-05-25T16:48:38.765Z,25.88
2019-05-25T16:51:08.383Z,25.79
2019-05-25T16:53:37.929Z,26.06
2019-05-25T16:56:07.447Z,26.09
2019-05-25T16:58:37.068Z,25.81
2019-05-25T17:01:06.616Z,25.75
2019-05-25T17:03:36.305Z,25.65
2019-05-25T17:06:05.955Z,25.28
2019-05-25T17:08:35.484Z,25.20
2019-05-25T17:11:05.506Z,25.14
2019-05-25T17:13:35.038Z,25.20
2019-05-25T17:16:04.653Z,25.33
2019-05-25T17:18:34.169Z,25.10
2019-05-25T17:21:03.766Z,24.93
2019-05-25T17:23:33.364Z,24.96
2019-05-25T17:26:03.207Z,24.95
2019-05-25T17:28:32.752Z,24.97
2019-05-25T17:31:02.351Z,25.07
2019-05-25T17:33:45.587Z,24.84
2019-05-25T17:36:03.248Z,24.83
2019-05-25T17:38:32.845Z,24.78
2019-05-25T17:41:02.460Z,24.85
2019-05-25T17:43:32.086Z,24.93
2019-05-25T17:46:01.585Z,24.80
2019-05-25T17:48:31.528Z,24.67
2019-05-25T17:51:01.237Z,24.64
2019-05-25T17:53:30.796Z,24.56
2019-05-25T17:56:00.735Z,24.56
2019-05-25T17:58:30.440Z,24.59
2019-05-25T18:01:00.002Z,24.54
2019-05-25T18:03:29.695Z,24.50
2019-05-25T18:05:59.313Z,24.46
2019-05-25T18:08:28.909Z,24.40
2019-05-25T18:10:59.161Z,24.45
2019-05-25T18:13:29.304Z,24.38
2019-05-25T18:15:58.970Z,24.35
2019-05-25T18:18:28.708Z,24.28
2019-05-25T18:20:58.299Z,24.24
2019-05-25T18:23:27.946Z,24.18
2019-05-25T18:25:57.661Z,24.18
2019-05-25T18:28:27.329Z,24.17
2019-05-25T18:30:57.058Z,24.16
2019-05-25T18:33:26.760Z,24.13
2019-05-25T18:35:56.449Z,24.13
2019-05-25T18:38:26.120Z,24.10
2019-05-25T18:40:55.815Z,24.08
2019-05-25T18:43:25.542Z,24.07
2019-05-25T18:45:55.293Z,24.05
2019-05-25T18:48:24.925Z,24.02
2019-05-25T18:50:54.584Z,23.99
2019-05-25T18:53:24.276Z,23.96
2019-05-25T18:55:53.826Z,23.92
2019-05-25T18:58:23.492Z,23.89
2019-05-25T19:00:53.368Z,23.85
2019-05-25T19:03:23.000Z,23.83
2019-05-25T19:05:52.968Z,23.79
2019-05-25T19:08:22.752Z,23.73
2019-05-25T19:10:52.471Z,23.70
2019-05-25T19:13:22.093Z,23.57
2019-05-25T19:15:51.733Z,23.50
2019-05-25T19:18:21.310Z,23.43
2019-05-25T19:20:50.922Z,23.40
2019-05-25T19:23:20.539Z,23.36
2019-05-25T19:25:50.194Z,23.33
2019-05-25T19:28:19.828Z,23.31
2019-05-25T19:30:49.421Z,23.22
2019-05-25T19:33:18.910Z,23.22
2019-05-25T19:35:48.347Z,23.13
2019-05-25T19:38:17.716Z,23.05
2019-05-25T19:40:47.163Z,22.95
2019-05-25T19:43:16.620Z,22.91
2019-05-25T19:45:47.376Z,22.69
2019-05-25T19:48:17.144Z,22.34
2019-05-25T19:50:46.750Z,22.13
2019-05-25T19:53:16.179Z,21.64
2019-05-25T19:55:45.607Z,21.99
2019-05-25T19:58:14.979Z,22.20
2019-05-25T20:00:44.476Z,22.27
2019-05-25T20:03:14.040Z,22.32
2019-05-25T20:05:43.907Z,22.33
2019-05-25T20:08:13.303Z,22.32
2019-05-25T20:10:42.679Z,22.29
2019-05-25T20:13:12.046Z,22.24
2019-05-25T20:15:41.471Z,21.92
2019-05-25T20:18:10.939Z,21.78
2019-05-25T20:20:40.332Z,21.69
2019-05-25T20:23:09.722Z,21.74
2019-05-25T20:25:39.100Z,21.80
2019-05-25T20:28:08.532Z,21.89
2019-05-25T20:30:37.944Z,21.88
2019-05-25T20:33:07.337Z,21.91
2019-05-25T20:35:36.793Z,21.89
2019-05-25T20:38:06.194Z,21.86
2019-05-25T20:40:35.737Z,21.88
2019-05-25T20:43:05.077Z,21.89
2019-05-25T20:45:34.496Z,21.90
2019-05-25T20:48:03.954Z,21.86
2019-05-25T20:50:33.792Z,21.74
2019-05-25T20:53:03.254Z,21.69
2019-05-25T20:55:32.693Z,21.69
2019-05-25T20:58:02.113Z,21.73
2019-05-25T21:00:31.672Z,21.75
2019-05-25T21:03:06.597Z,21.75
2019-05-25T21:05:48.509Z,21.75
2019-05-25T21:08:03.518Z,21.74
2019-05-25T21:10:33.053Z,21.68
2019-05-25T21:13:02.539Z,21.64
2019-05-25T21:15:31.983Z,21.50
2019-05-25T21:18:01.460Z,21.31
2019-05-25T21:20:30.916Z,21.30
2019-05-25T21:23:00.419Z,21.07
2019-05-25T21:25:29.954Z,21.28
2019-05-25T21:27:59.483Z,21.38
2019-05-25T21:30:28.939Z,21.44
2019-05-25T21:32:58.339Z,21.47
2019-05-25T21:35:27.744Z,21.53
2019-05-25T21:37:57.251Z,21.53
2019-05-25T21:40:26.947Z,21.56
2019-05-25T21:42:56.454Z,21.53
2019-05-25T21:45:25.925Z,21.51
2019-05-25T21:47:56.528Z,21.51
2019-05-25T21:50:26.127Z,21.50
2019-05-25T21:52:55.526Z,21.50
2019-05-25T21:55:24.917Z,21.50
2019-05-25T21:57:54.346Z,21.49
2019-05-25T22:00:27.886Z,21.46
2019-05-25T22:02:57.400Z,21.45
2019-05-25T22:05:30.573Z,21.43
2019-05-25T22:07:57.964Z,21.43
2019-05-25T22:10:27.440Z,21.37
2019-05-25T22:12:56.829Z,21.32
2019-05-25T22:15:26.306Z,21.31
2019-05-25T22:17:55.907Z,21.21
2019-05-25T22:20:25.299Z,20.59
2019-05-25T22:22:54.765Z,20.88
2019-05-25T22:25:24.216Z,21.08
2019-05-25T22:27:53.720Z,21.08
2019-05-25T22:30:23.182Z,21.11
2019-05-25T22:32:52.644Z,20.98
2019-05-25T22:35:22.160Z,20.88
2019-05-25T22:37:51.618Z,20.99
2019-05-25T22:40:21.411Z,21.01
2019-05-25T22:42:50.781Z,21.02
2019-05-25T22:45:20.252Z,20.97
2019-05-25T22:47:49.719Z,20.86
2019-05-25T22:50:19.501Z,20.70
2019-05-25T22:52:48.914Z,20.52
2019-05-25T22:55:18.420Z,20.61
2019-05-25T22:57:47.894Z,19.98
2019-05-25T23:00:18.061Z,19.89
2019-05-25T23:02:47.530Z,19.89
2019-05-25T23:05:16.905Z,19.90
2019-05-25T23:07:46.323Z,19.67
2019-05-25T23:10:15.990Z,19.64
2019-05-25T23:12:45.373Z,19.74
2019-05-25T23:15:14.825Z,19.73
2019-05-25T23:17:44.237Z,19.76
2019-05-25T23:20:13.728Z,19.59
2019-05-25T23:22:43.078Z,19.35
2019-05-25T23:25:12.551Z,19.27
2019-05-25T23:27:41.941Z,19.32
2019-05-25T23:30:11.580Z,19.15
2019-05-25T23:32:41.200Z,18.97
2019-05-25T23:35:11.348Z,19.00
2019-05-25T23:37:40.800Z,18.79
2019-05-25T23:40:10.467Z,19.00
2019-05-25T23:42:39.982Z,18.80
2019-05-25T23:45:09.723Z,19.19
2019-05-25T23:47:39.143Z,19.29
2019-05-25T23:50:09.196Z,19.04
2019-05-25T23:52:38.679Z,18.79
2019-05-25T23:55:09.633Z,18.91
2019-05-25T23:57:39.404Z,19.06
